Time;durP1;ratioP1;P1;durP2;ratioP2;P2;SDS_P1;SDS_P2;PMS_P1;PMS_P2;Temp;Humidity;BMP_temperature;BMP_pressure;BME280_temperature;BME280_humidity;BME280_pressure;Samples;Min_cycle;Max_cycle;Signal;HPM_P1;HPM_P2
2021/01/11 00:00:13;;;;;;;28.85;16.25;;;-2.00;99.90;;;;;;4955514;29;20479;-80
2021/01/11 00:02:39;;;;;;;27.95;15.73;;;-1.90;99.90;;;;;;4955436;29;20031;-79
2021/01/11 00:05:06;;;;;;;32.35;17.98;;;-1.90;99.90;;;;;;4957281;29;20426;-80
2021/01/11 00:07:32;;;;;;;31.20;17.58;;;-2.10;99.90;;;;;;4955314;29;20024;-79
2021/01/11 00:09:59;;;;;;;29.92;15.95;;;-2.30;99.90;;;;;;4955383;29;20031;-80
2021/01/11 00:12:25;;;;;;;24.27;15.00;;;-2.40;99.90;;;;;;4955391;29;20390;-79
2021/01/11 00:14:50;;;;;;;27.90;16.35;;;-2.90;99.90;;;;;;4955244;29;20023;-79
2021/01/11 00:17:16;;;;;;;26.73;14.95;;;-2.60;99.90;;;;;;4956499;29;20062;-79
2021/01/11 00:19:42;;;;;;;29.08;15.52;;;-2.40;99.90;;;;;;4954884;29;20109;-80
2021/01/11 00:22:08;;;;;;;28.80;15.57;;;-2.30;99.90;;;;;;4955299;29;20066;-80
2021/01/11 00:24:33;;;;;;;27.35;15.35;;;-2.10;99.90;;;;;;4956670;29;20027;-80
2021/01/11 00:26:59;;;;;;;27.52;14.95;;;-2.10;99.90;;;;;;4956547;28;20074;-79
2021/01/11 00:29:25;;;;;;;24.85;14.32;;;-2.20;99.90;;;;;;4955022;29;20523;-79
2021/01/11 00:31:51;;;;;;;25.75;15.32;;;-1.90;99.90;;;;;;4956197;29;20090;-79
2021/01/11 00:34:17;;;;;;;27.42;14.82;;;-2.20;99.90;;;;;;4956469;28;20045;-79
2021/01/11 00:36:47;;;;;;;28.38;16.20;;;-2.30;99.90;;;;;;4954614;28;20086;-80
2021/01/11 00:39:13;;;;;;;25.75;14.18;;;-2.30;99.90;;;;;;4955125;29;20038;-79
2021/01/11 00:41:39;;;;;;;23.08;14.45;;;-2.30;99.90;;;;;;4956333;28;20038;-79
2021/01/11 00:44:05;;;;;;;21.80;13.73;;;-2.00;99.90;;;;;;4956027;29;20027;-79
2021/01/11 00:46:31;;;;;;;26.00;15.25;;;-1.90;99.90;;;;;;4954639;29;20027;-79
2021/01/11 00:48:57;;;;;;;27.00;15.30;;;-1.80;99.90;;;;;;4954661;29;20054;-79
2021/01/11 00:51:23;;;;;;;25.23;13.90;;;-1.80;99.90;;;;;;4954630;29;20027;-79
2021/01/11 00:53:49;;;;;;;24.42;13.73;;;-1.60;99.90;;;;;;4954613;29;20023;-80
2021/01/11 00:56:18;;;;;;;23.65;13.95;;;-1.60;99.90;;;;;;4953685;28;20491;-79
2021/01/11 00:58:44;;;;;;;23.40;13.95;;;-2.10;99.90;;;;;;4954514;29;20027;-79
2021/01/11 01:01:11;;;;;;;25.45;13.93;;;-1.90;99.90;;;;;;4954444;29;20036;-79
2021/01/11 01:03:37;;;;;;;23.05;14.38;;;-1.90;99.90;;;;;;4955176;29;20114;-80
2021/01/11 01:06:11;;;;;;;24.85;14.20;;;-1.90;99.90;;;;;;4954348;29;20027;-80
2021/01/11 01:08:37;;;;;;;24.40;13.63;;;-2.20;99.90;;;;;;4955755;28;20027;-79
2021/01/11 01:11:03;;;;;;;25.25;13.85;;;-2.20;99.90;;;;;;4954286;29;20494;-79
2021/01/11 01:13:29;;;;;;;22.83;14.30;;;-2.00;99.90;;;;;;4954302;29;20035;-79
2021/01/11 01:15:54;;;;;;;25.25;14.13;;;-2.00;99.90;;;;;;4954230;29;20073;-80
2021/01/11 01:18:20;;;;;;;24.38;14.27;;;-2.30;99.90;;;;;;4954161;29;20031;-79
2021/01/11 01:20:47;;;;;;;23.40;14.13;;;-2.20;99.90;;;;;;4938265;29;20489;-79
2021/01/11 01:23:12;;;;;;;24.20;13.60;;;-2.30;99.90;;;;;;4954170;29;20386;-79
2021/01/11 01:25:39;;;;;;;21.70;13.85;;;-2.00;99.90;;;;;;4955275;29;20024;-79
2021/01/11 01:28:07;;;;;;;22.77;14.00;;;-2.10;99.90;;;;;;4954015;29;20027;-79
2021/01/11 01:30:32;;;;;;;23.13;14.05;;;-2.50;99.90;;;;;;4954035;29;20078;-79
2021/01/11 01:32:59;;;;;;;23.48;13.80;;;-2.70;99.90;;;;;;4954014;29;20466;-79
2021/01/11 01:35:29;;;;;;;24.73;14.00;;;-3.00;99.90;;;;;;4955606;28;20110;-79
2021/01/11 01:37:55;;;;;;;26.20;14.23;;;-2.50;99.90;;;;;;4953831;28;20043;-80
2021/01/11 01:40:21;;;;;;;21.40;13.35;;;-2.40;99.90;;;;;;4953961;29;20034;-80
2021/01/11 01:42:47;;;;;;;22.17;13.95;;;-2.50;99.90;;;;;;4955149;29;20019;-79
2021/01/11 01:45:13;;;;;;;24.15;14.95;;;-2.30;99.90;;;;;;4953894;29;20051;-79
2021/01/11 01:47:38;;;;;;;22.98;14.30;;;-2.50;99.90;;;;;;4953793;29;20031;-79
2021/01/11 01:50:06;;;;;;;22.45;14.52;;;-2.40;99.90;;;;;;4953888;29;20031;-79
2021/01/11 01:52:36;;;;;;;20.88;12.52;;;-2.10;99.90;;;;;;4953763;29;20024;-79
2021/01/11 01:55:03;;;;;;;24.05;13.48;;;-2.30;99.90;;;;;;4953783;29;20038;-79
2021/01/11 01:57:29;;;;;;;22.98;14.65;;;-2.70;99.90;;;;;;4953848;29;20078;-80
2021/01/11 01:59:54;;;;;;;25.73;14.15;;;-2.60;99.90;;;;;;4953791;29;20491;-79
2021/01/11 02:02:22;;;;;;;23.55;13.70;;;-2.30;99.90;;;;;;4953756;29;20062;-79
2021/01/11 02:04:48;;;;;;;21.08;13.43;;;-2.20;99.90;;;;;;4953769;29;20024;-80
2021/01/11 02:07:40;;;;;;;22.10;12.95;;;-2.20;99.90;;;;;;4954358;28;20030;-79
2021/01/11 02:10:18;;;;;;;23.95;13.00;;;-2.20;99.90;;;;;;4957613;29;20023;-80
2021/01/11 02:13:12;;;;;;;21.45;12.43;;;-2.60;99.90;;;;;;4957521;29;20030;-80
2021/01/11 02:15:46;;;;;;;18.90;12.25;;;-2.90;99.90;;;;;;4957442;29;20055;-80
2021/01/11 02:18:18;;;;;;;20.85;13.23;;;-2.90;99.90;;;;;;4957367;29;20024;-79
2021/01/11 02:21:18;;;;;;;20.98;12.65;;;-2.70;99.90;;;;;;4957797;29;20118;-79
2021/01/11 02:23:56;;;;;;;20.38;12.40;;;-2.50;99.90;;;;;;4958599;29;20062;-80
2021/01/11 02:26:53;;;;;;;19.73;12.38;;;-2.20;99.90;;;;;;4957199;29;20038;-80
2021/01/11 02:29:52;;;;;;;23.25;12.45;;;-2.20;99.90;;;;;;4957274;29;20449;-80
2021/01/11 02:32:19;;;;;;;19.90;12.13;;;-2.50;99.90;;;;;;4957146;29;20046;-79
2021/01/11 02:34:47;;;;;;;19.80;12.68;;;-2.50;99.90;;;;;;4957067;29;20023;-79
2021/01/11 02:37:13;;;;;;;22.38;12.95;;;-2.20;99.90;;;;;;4956857;28;20055;-80
2021/01/11 02:39:41;;;;;;;19.52;11.85;;;-2.30;99.90;;;;;;4957067;29;20482;-80
2021/01/11 02:42:06;;;;;;;18.60;11.45;;;-2.30;99.90;;;;;;4956953;29;20122;-80
2021/01/11 02:44:32;;;;;;;20.55;11.88;;;-2.30;99.90;;;;;;4940862;29;20558;-79
2021/01/11 02:46:58;;;;;;;23.33;12.90;;;-2.00;99.90;;;;;;4956698;29;20031;-79
2021/01/11 02:49:26;;;;;;;26.60;13.20;;;-2.00;99.90;;;;;;4956811;29;20023;-79
2021/01/11 02:52:10;;;;;;;24.17;13.45;;;-2.60;99.90;;;;;;4956749;29;20419;-79
2021/01/11 02:54:40;;;;;;;;;;;-3.10;99.90;;;;;;4957232;29;20045;-80
2021/01/11 02:57:25;;;;;;;17.83;11.10;;;-2.60;99.90;;;;;;4956716;29;20366;-80
2021/01/11 03:00:06;;;;;;;19.52;11.70;;;-2.70;99.90;;;;;;4956600;29;20031;-80
2021/01/11 03:02:35;;;;;;;26.08;16.13;;;-2.90;99.90;;;;;;4956690;29;20043;-79
2021/01/11 03:05:03;;;;;;;21.50;11.93;;;-3.20;99.90;;;;;;4957129;29;20027;-79
2021/01/11 03:07:29;;;;;;;21.92;12.45;;;-3.60;99.90;;;;;;4956349;29;20023;-79
2021/01/11 03:09:55;;;;;;;26.90;12.95;;;-3.50;99.90;;;;;;4956441;29;20023;-79
2021/01/11 03:12:20;;;;;;;21.77;12.45;;;-3.40;99.90;;;;;;4956446;29;20023;-79
2021/01/11 03:14:46;;;;;;;18.85;11.48;;;-3.50;99.90;;;;;;4957909;29;20478;-79
2021/01/11 03:17:12;;;;;;;21.50;12.45;;;-3.40;99.90;;;;;;4956296;29;20509;-80
2021/01/11 03:19:37;;;;;;;20.25;11.73;;;-3.10;99.90;;;;;;4956668;28;20058;-80
2021/01/11 03:22:03;;;;;;;21.95;11.93;;;-3.00;99.90;;;;;;4956201;29;20483;-79
2021/01/11 03:24:29;;;;;;;21.58;11.85;;;-3.10;99.90;;;;;;4957497;28;20082;-80
2021/01/11 03:26:59;;;;;;;19.50;11.25;;;-2.90;99.90;;;;;;4940052;29;20034;-79
2021/01/11 03:29:25;;;;;;;19.73;11.43;;;-2.60;99.90;;;;;;4956116;29;20027;-79
2021/01/11 03:31:51;;;;;;;17.65;11.25;;;-2.60;99.90;;;;;;4956115;29;20420;-79
2021/01/11 03:34:16;;;;;;;19.60;11.20;;;-3.00;99.90;;;;;;4955973;29;20031;-80
2021/01/11 03:36:43;;;;;;;21.17;11.38;;;-3.00;99.90;;;;;;4955735;28;20028;-80
2021/01/11 03:39:10;;;;;;;19.20;11.15;;;-2.80;99.90;;;;;;4957094;28;20407;-79
2021/01/11 03:41:37;;;;;;;20.52;11.50;;;-2.70;99.90;;;;;;4955974;29;20070;-80
2021/01/11 03:44:04;;;;;;;18.88;10.88;;;-2.20;99.90;;;;;;4957167;28;20069;-79
2021/01/11 03:46:30;;;;;;;18.55;11.18;;;-2.30;99.90;;;;;;4955720;29;20027;-79
2021/01/11 03:48:57;;;;;;;17.33;10.63;;;-2.40;99.90;;;;;;4957041;28;20023;-80
2021/01/11 03:51:23;;;;;;;20.10;11.65;;;-2.60;99.90;;;;;;4955726;28;20033;-79
2021/01/11 03:53:49;;;;;;;17.95;10.45;;;-2.70;99.90;;;;;;4956932;28;20379;-80
2021/01/11 03:56:15;;;;;;;19.92;11.05;;;-2.40;99.90;;;;;;4955698;29;20031;-80
2021/01/11 03:58:41;;;;;;;18.17;10.82;;;-2.90;99.90;;;;;;4955631;29;20038;-79
2021/01/11 04:01:07;;;;;;;20.38;11.20;;;-2.60;99.90;;;;;;4955551;29;20027;-80
2021/01/11 04:03:32;;;;;;;17.58;10.45;;;-2.50;99.90;;;;;;4955523;29;20490;-79
2021/01/11 04:05:59;;;;;;;17.65;9.77;;;-2.50;99.90;;;;;;4955427;29;20114;-80
2021/01/11 04:08:25;;;;;;;17.80;10.50;;;-2.30;99.90;;;;;;4955446;29;20028;-80
2021/01/11 04:10:52;;;;;;;17.45;10.70;;;-2.10;99.90;;;;;;4955420;29;20486;-80
2021/01/11 04:13:18;;;;;;;16.33;9.85;;;-2.10;99.90;;;;;;4955264;29;20481;-80
2021/01/11 04:15:44;;;;;;;19.75;10.57;;;-1.80;99.90;;;;;;4955282;29;20023;-80
2021/01/11 04:18:10;;;;;;;19.42;11.07;;;-2.30;99.90;;;;;;4955251;29;20055;-81
2021/01/11 04:20:36;;;;;;;18.05;10.63;;;-2.80;99.90;;;;;;4955213;29;20051;-80
2021/01/11 04:23:03;;;;;;;16.13;10.15;;;-2.90;99.90;;;;;;4955198;29;20023;-80
2021/01/11 04:25:29;;;;;;;19.05;10.82;;;-3.20;99.90;;;;;;4955109;29;20031;-79
2021/01/11 04:28:00;;;;;;;17.35;10.43;;;-3.10;99.90;;;;;;4955003;29;20376;-80
2021/01/11 04:30:26;;;;;;;18.92;10.63;;;-3.10;99.90;;;;;;4954918;28;20491;-80
2021/01/11 04:32:53;;;;;;;19.48;10.88;;;-3.00;99.90;;;;;;4956272;28;20356;-79
2021/01/11 04:35:21;;;;;;;18.75;10.13;;;-3.30;99.90;;;;;;4939241;29;20122;-80
2021/01/11 04:37:47;;;;;;;20.23;10.55;;;-3.30;99.90;;;;;;4954608;28;20306;-80
2021/01/11 04:40:14;;;;;;;21.20;11.15;;;-3.20;99.90;;;;;;4938838;29;20503;-79
2021/01/11 04:42:47;;;;;;;17.75;9.95;;;-2.80;99.90;;;;;;4954815;29;20027;-79
2021/01/11 04:45:14;;;;;;;16.13;10.23;;;-2.60;99.90;;;;;;4954813;29;20051;-79
2021/01/11 04:47:41;;;;;;;17.75;9.77;;;-2.40;99.90;;;;;;4954649;29;20131;-80
2021/01/11 04:50:08;;;;;;;17.15;10.85;;;-2.50;99.90;;;;;;4954673;29;20478;-79
2021/01/11 04:52:34;;;;;;;21.17;10.43;;;-2.80;99.90;;;;;;4954620;29;20024;-80
2021/01/11 04:55:08;;;;;;;19.42;10.80;;;-2.80;99.90;;;;;;4954625;29;20130;-80
2021/01/11 04:57:36;;;;;;;19.27;10.80;;;-2.40;99.90;;;;;;4954623;29;20058;-80
2021/01/11 05:00:09;;;;;;;17.48;9.43;;;-2.70;99.90;;;;;;4955763;28;20490;-80
2021/01/11 05:02:45;;;;;;;18.30;10.32;;;-2.90;99.90;;;;;;4954743;29;20027;-80
2021/01/11 05:05:12;;;;;;;17.88;10.18;;;-3.10;99.90;;;;;;4954396;29;20035;-80
2021/01/11 05:07:39;;;;;;;19.67;10.20;;;-2.90;99.90;;;;;;4954301;29;20027;-80
2021/01/11 05:10:05;;;;;;;18.55;10.15;;;-2.60;99.90;;;;;;4954539;29;20083;-80
2021/01/11 05:12:32;;;;;;;17.58;10.43;;;-2.50;99.90;;;;;;4954543;29;20032;-80
2021/01/11 05:15:17;;;;;;;16.88;10.05;;;-2.50;99.90;;;;;;4954332;29;20027;-80
2021/01/11 05:17:44;;;;;;;20.52;10.20;;;-2.70;99.90;;;;;;4955444;28;20069;-80
2021/01/11 05:20:13;;;;;;;17.77;9.98;;;-2.70;99.90;;;;;;4954242;29;20078;-80
2021/01/11 05:22:48;;;;;;;18.00;10.32;;;-3.20;99.90;;;;;;4954163;29;20033;-79
2021/01/11 05:25:18;;;;;;;20.35;10.85;;;-3.30;99.90;;;;;;4955741;28;20031;-80
2021/01/11 05:27:45;;;;;;;19.35;11.05;;;-3.50;99.90;;;;;;4938528;29;20034;-79
2021/01/11 05:30:28;;;;;;;19.00;10.55;;;-3.60;99.90;;;;;;4954076;29;20027;-80
2021/01/11 05:32:54;;;;;;;13.10;7.63;;;-3.90;99.90;;;;;;4954156;29;20467;-80
2021/01/11 05:35:25;;;;;;;14.93;9.15;;;-3.60;99.90;;;;;;4955294;28;20031;-80
2021/01/11 05:37:51;;;;;;;16.25;9.73;;;-3.10;99.90;;;;;;4953780;28;20057;-80
2021/01/11 05:40:25;;;;;;;17.65;9.23;;;-3.10;99.90;;;;;;4953991;29;20039;-80
2021/01/11 05:42:52;;;;;;;;;;;-2.80;99.90;;;;;;4953933;28;20123;-79
2021/01/11 05:45:29;;;;;;;17.85;10.38;;;-3.00;99.90;;;;;;4953931;29;19914;-80
2021/01/11 05:48:05;;;;;;;19.50;10.77;;;-3.00;99.90;;;;;;4955244;28;20031;-80
2021/01/11 05:50:40;;;;;;;25.13;10.60;;;-3.10;99.90;;;;;;4953912;29;20055;-80
2021/01/11 05:53:23;;;;;;;23.38;11.05;;;-3.10;99.90;;;;;;4953929;29;20548;-80
2021/01/11 05:55:54;;;;;;;22.10;10.45;;;-3.40;99.90;;;;;;4953873;29;20386;-79
2021/01/11 05:58:27;;;;;;;20.77;10.85;;;-3.30;99.90;;;;;;4953876;29;20497;-80
2021/01/11 06:00:53;;;;;;;23.30;11.07;;;-3.30;99.90;;;;;;4953837;29;20025;-80
2021/01/11 06:03:18;;;;;;;22.55;11.80;;;-3.60;99.90;;;;;;4953766;29;20382;-80
2021/01/11 06:05:45;;;;;;;23.02;11.45;;;-3.70;99.90;;;;;;4953697;29;20055;-80
2021/01/11 06:08:13;;;;;;;22.52;12.50;;;-3.50;99.90;;;;;;4955273;28;20024;-80
2021/01/11 06:10:40;;;;;;;24.10;12.63;;;-3.40;99.90;;;;;;4953736;29;20059;-79
2021/01/11 06:13:11;;;;;;;20.88;11.55;;;-3.10;99.90;;;;;;4953984;29;20024;-80
2021/01/11 06:15:38;;;;;;;25.02;12.55;;;-3.00;99.90;;;;;;4953682;29;20471;-80
2021/01/11 06:18:12;;;;;;;25.85;13.05;;;-3.50;99.90;;;;;;4953622;29;20121;-80
2021/01/11 06:20:43;;;;;;;23.20;12.32;;;-3.60;99.90;;;;;;4953682;29;20034;-79
2021/01/11 06:23:11;;;;;;;28.27;12.32;;;-3.50;99.90;;;;;;4953554;29;20034;-79
2021/01/11 06:25:39;;;;;;;25.10;12.38;;;-3.50;99.90;;;;;;4953526;29;20449;-80
2021/01/11 06:28:09;;;;;;;20.45;11.43;;;-3.50;99.90;;;;;;4953500;29;20031;-79
2021/01/11 06:30:36;;;;;;;21.88;10.98;;;-3.70;99.90;;;;;;4953584;29;20028;-80
2021/01/11 06:33:24;;;;;;;21.77;11.13;;;-3.70;99.90;;;;;;4953494;29;20015;-81
2021/01/11 06:35:52;;;;;;;21.27;11.68;;;-3.70;99.90;;;;;;4953467;29;20527;-79
2021/01/11 06:38:28;;;;;;;20.95;11.95;;;-3.30;99.90;;;;;;4937290;29;20202;-79
2021/01/11 06:41:02;;;;;;;24.65;12.50;;;-3.20;99.90;;;;;;4953444;29;20024;-80
2021/01/11 06:43:40;;;;;;;22.20;12.48;;;-3.30;99.90;;;;;;4953486;29;20023;-79
2021/01/11 06:46:09;;;;;;;24.33;12.82;;;-3.50;99.90;;;;;;4955227;28;20062;-79
2021/01/11 06:48:36;;;;;;;19.80;10.63;;;-3.60;99.90;;;;;;4953428;29;20439;-79
2021/01/11 06:51:10;;;;;;;20.98;11.77;;;-3.10;99.90;;;;;;4953381;29;20019;-80
2021/01/11 06:53:36;;;;;;;22.55;12.25;;;-3.00;99.90;;;;;;4953668;28;20034;-79
2021/01/11 06:56:07;;;;;;;20.15;12.23;;;-3.00;99.90;;;;;;4956513;29;20035;-79
2021/01/11 06:58:40;;;;;;;20.48;12.70;;;-2.90;99.90;;;;;;4958030;28;20074;-79
2021/01/11 07:01:13;;;;;;;21.52;12.90;;;-2.60;99.90;;;;;;4956681;29;20059;-79
2021/01/11 07:03:46;;;;;;;20.40;11.35;;;-3.00;99.90;;;;;;4941115;29;20082;-79
2021/01/11 07:06:40;;;;;;;27.90;13.05;;;-2.90;99.90;;;;;;4957721;28;20027;-80
2021/01/11 07:09:06;;;;;;;;;;;-3.20;99.90;;;;;;4956987;29;20027;-79
2021/01/11 07:11:36;;;;;;;27.17;12.48;;;-3.60;99.90;;;;;;4956518;29;19912;-79
2021/01/11 07:14:06;;;;;;;22.17;12.20;;;-3.40;99.90;;;;;;4956499;29;20023;-79
2021/01/11 07:16:42;;;;;;;20.92;12.52;;;-3.50;99.90;;;;;;4957705;28;20041;-79
2021/01/11 07:19:08;;;;;;;22.52;12.93;;;-3.50;99.90;;;;;;4957874;28;20467;-78
2021/01/11 07:21:37;;;;;;;23.75;12.73;;;-3.60;99.90;;;;;;4956522;29;20078;-79
2021/01/11 07:24:07;;;;;;;21.88;12.48;;;-3.30;99.90;;;;;;4957771;28;20427;-78
2021/01/11 07:26:36;;;;;;;24.92;13.68;;;-3.70;99.90;;;;;;4956134;29;20031;-79
2021/01/11 07:29:03;;;;;;;23.83;12.55;;;-3.80;99.90;;;;;;4957613;28;20404;-81
2021/01/11 07:31:30;;;;;;;28.20;15.75;;;-4.00;99.90;;;;;;4957369;28;20015;-81
2021/01/11 07:34:18;;;;;;;25.60;14.23;;;-4.20;99.90;;;;;;4956079;29;20027;-80
2021/01/11 07:36:47;;;;;;;24.42;13.68;;;-3.90;99.90;;;;;;4940316;29;20383;-81
2021/01/11 07:39:35;;;;;;;27.83;13.85;;;-3.90;99.90;;;;;;4957283;28;20039;-81
2021/01/11 07:42:03;;;;;;;22.48;13.13;;;-4.20;99.90;;;;;;4956277;29;20059;-80
2021/01/11 07:44:33;;;;;;;26.63;15.02;;;-4.30;99.90;;;;;;4956111;29;20493;-80
2021/01/11 07:47:06;;;;;;;32.47;16.13;;;-4.10;99.90;;;;;;4956608;29;20462;-81
2021/01/11 07:49:35;;;;;;;29.92;15.85;;;-4.20;99.90;;;;;;4957063;28;20025;-80
2021/01/11 07:52:12;;;;;;;23.30;13.90;;;-4.30;99.90;;;;;;4940205;29;20055;-81
2021/01/11 07:54:39;;;;;;;25.50;14.15;;;-4.10;99.90;;;;;;4957023;28;20023;-80
2021/01/11 07:57:09;;;;;;;21.40;12.63;;;-3.50;99.90;;;;;;4956969;28;20466;-81
2021/01/11 07:59:35;;;;;;;25.92;13.88;;;-3.30;99.90;;;;;;4955666;29;20434;-81
2021/01/11 08:02:03;;;;;;;24.48;13.52;;;-3.00;99.90;;;;;;4955599;29;20078;-80
2021/01/11 08:04:38;;;;;;;22.13;12.68;;;-3.00;99.90;;;;;;4955459;28;20027;-80
2021/01/11 08:07:12;;;;;;;29.48;14.77;;;-3.40;99.90;;;;;;4939486;29;20039;-80
2021/01/11 08:09:40;;;;;;;23.98;12.27;;;-3.20;99.90;;;;;;4955474;29;20050;-79
2021/01/11 08:12:12;;;;;;;22.38;13.40;;;-3.20;99.90;;;;;;4956715;28;20102;-79
2021/01/11 08:14:39;;;;;;;22.48;12.57;;;-2.80;99.90;;;;;;4955357;29;20031;-79
2021/01/11 08:17:29;;;;;;;18.88;11.13;;;-2.20;99.90;;;;;;4955229;29;20085;-79
2021/01/11 08:19:58;;;;;;;20.10;11.55;;;-2.00;99.90;;;;;;4955127;29;20122;-81
2021/01/11 08:22:28;;;;;;;20.08;11.35;;;-2.00;99.90;;;;;;4955087;29;20538;-79
2021/01/11 08:24:58;;;;;;;27.75;16.88;;;-2.00;99.90;;;;;;4955151;29;20031;-85
2021/01/11 08:27:44;;;;;;;21.30;12.32;;;-1.80;99.90;;;;;;4955107;29;20035;-84
2021/01/11 08:30:23;;;;;;;24.38;13.27;;;-1.70;99.90;;;;;;4955112;29;20023;-84
2021/01/11 08:32:49;;;;;;;32.97;15.07;;;-1.40;99.90;;;;;;4956605;28;20046;-83
2021/01/11 08:35:18;;;;;;;23.60;13.90;;;-1.30;99.90;;;;;;4956292;28;20047;-84
2021/01/11 08:37:44;;;;;;;25.48;13.70;;;-1.40;99.90;;;;;;4954698;28;20067;-84
2021/01/11 08:40:38;;;;;;;21.55;13.40;;;-1.20;99.90;;;;;;4954808;29;20027;-84
2021/01/11 08:43:13;;;;;;;23.42;12.85;;;-0.90;99.90;;;;;;4954914;29;20047;-84
2021/01/11 08:45:40;;;;;;;23.38;13.38;;;-1.10;99.90;;;;;;4954866;29;20064;-85
2021/01/11 08:48:11;;;;;;;24.75;13.35;;;-1.00;99.90;;;;;;4956038;28;20067;-85
2021/01/11 08:51:04;;;;;;;22.00;12.32;;;-1.00;99.90;;;;;;4954815;29;20526;-84
2021/01/11 08:53:41;;;;;;;19.50;11.07;;;-1.00;99.90;;;;;;4954637;29;20129;-86
2021/01/11 08:56:09;;;;;;;21.52;12.55;;;-0.90;99.90;;;;;;4954797;29;20066;-85
2021/01/11 08:58:46;;;;;;;22.00;12.70;;;-0.60;99.90;;;;;;4954715;29;20082;-84
2021/01/11 09:01:19;;;;;;;22.15;11.93;;;-0.10;99.90;;;;;;4955937;28;20023;-83
2021/01/11 09:03:55;;;;;;;22.17;13.15;;;0.00;99.90;;;;;;4954647;29;20064;-84
2021/01/11 09:06:41;;;;;;;26.70;14.30;;;-0.20;99.90;;;;;;4956461;29;20118;-82
2021/01/11 09:09:25;;;;;;;27.90;13.52;;;-0.60;99.90;;;;;;4954389;29;20028;-82
2021/01/11 09:12:07;;;;;;;23.53;13.57;;;-0.30;99.90;;;;;;4954476;29;20027;-82
2021/01/11 09:14:35;;;;;;;27.63;14.45;;;-0.20;99.90;;;;;;4954370;29;20035;-81
2021/01/11 09:17:05;;;;;;;27.90;13.88;;;-0.10;99.90;;;;;;4953605;28;20043;-81
2021/01/11 09:19:32;;;;;;;28.52;15.23;;;0.30;99.90;;;;;;4955825;29;20023;-82
2021/01/11 09:22:17;;;;;;;27.60;14.25;;;0.40;99.90;;;;;;4955422;29;20058;-83
2021/01/11 09:24:44;;;;;;;22.08;13.73;;;0.20;99.90;;;;;;4954255;29;20122;-81
2021/01/11 09:27:11;;;;;;;21.45;13.00;;;0.40;99.90;;;;;;4954116;29;20035;-81
2021/01/11 09:29:37;;;;;;;25.23;13.77;;;0.10;99.90;;;;;;4955419;28;20031;-82
2021/01/11 09:32:05;;;;;;;21.38;12.77;;;0.10;99.90;;;;;;4955446;28;20439;-82
2021/01/11 09:34:30;;;;;;;28.17;14.55;;;0.80;99.90;;;;;;4955404;28;20023;-79
2021/01/11 09:36:56;;;;;;;31.15;16.13;;;0.90;99.90;;;;;;4955314;28;20032;-80
2021/01/11 09:39:22;;;;;;;30.08;16.23;;;0.50;99.90;;;;;;4953899;29;20047;-81
2021/01/11 09:41:51;;;;;;;34.50;16.02;;;0.30;99.90;;;;;;4955290;28;20027;-80
2021/01/11 09:44:18;;;;;;;31.38;16.15;;;0.50;99.90;;;;;;4953960;29;20130;-79
2021/01/11 09:46:45;;;;;;;25.48;15.10;;;0.60;99.90;;;;;;4953924;29;20100;-80
2021/01/11 09:49:12;;;;;;;28.52;16.35;;;0.70;99.90;;;;;;4953915;29;20031;-80
2021/01/11 09:51:37;;;;;;;31.00;16.20;;;0.60;99.90;;;;;;4955175;28;20035;-80
2021/01/11 09:54:04;;;;;;;29.58;14.23;;;0.80;99.90;;;;;;4953893;29;20030;-80
2021/01/11 09:56:30;;;;;;;24.58;13.95;;;1.20;99.90;;;;;;4955155;28;20378;-80
2021/01/11 09:58:55;;;;;;;25.73;13.93;;;1.70;99.90;;;;;;4954941;29;20033;-80
2021/01/11 10:01:22;;;;;;;41.00;17.38;;;2.10;99.90;;;;;;4955109;28;20020;-80
2021/01/11 10:03:48;;;;;;;31.20;14.88;;;2.40;99.90;;;;;;4953830;29;20035;-81
2021/01/11 10:06:15;;;;;;;48.88;20.10;;;2.90;99.90;;;;;;4955050;28;20035;-80
2021/01/11 10:08:41;;;;;;;32.70;16.00;;;2.90;99.90;;;;;;4955069;28;20073;-80
2021/01/11 10:11:14;;;;;;;27.25;14.88;;;2.70;99.90;;;;;;4953780;28;20487;-81
2021/01/11 10:13:40;;;;;;;24.58;13.75;;;2.80;99.90;;;;;;4953781;29;20047;-81
2021/01/11 10:16:06;;;;;;;20.80;12.38;;;3.10;99.90;;;;;;4953743;29;20027;-81
2021/01/11 10:18:32;;;;;;;20.83;12.18;;;3.10;99.90;;;;;;4954992;28;20086;-81
2021/01/11 10:20:58;;;;;;;24.65;13.48;;;3.50;99.90;;;;;;4953729;29;20019;-82
2021/01/11 10:23:23;;;;;;;23.35;14.18;;;3.60;99.90;;;;;;4954875;29;20027;-82
2021/01/11 10:25:49;;;;;;;23.75;13.15;;;3.60;99.90;;;;;;4954881;29;20483;-78
2021/01/11 10:28:15;;;;;;;24.38;14.85;;;3.50;99.90;;;;;;4955780;28;20039;-78
2021/01/11 10:30:41;;;;;;;21.65;13.43;;;3.10;99.90;;;;;;4957258;29;20031;-78
2021/01/11 10:33:08;;;;;;;28.17;14.27;;;3.30;99.90;;;;;;4957184;29;20097;-82
2021/01/11 10:35:34;;;;;;;20.55;11.48;;;3.10;99.90;;;;;;4957199;28;20050;-82
2021/01/11 10:38:00;;;;;;;21.30;13.00;;;3.00;99.90;;;;;;4956821;28;20058;-82
2021/01/11 10:40:25;;;;;;;19.30;12.32;;;3.40;99.90;;;;;;4958349;28;20027;-81
2021/01/11 10:42:51;;;;;;;22.05;12.90;;;3.00;99.90;;;;;;4957017;28;20035;-81
2021/01/11 10:45:17;;;;;;;20.40;12.40;;;3.10;99.90;;;;;;4956917;28;20077;-82
2021/01/11 10:47:43;;;;;;;25.40;13.15;;;3.20;99.90;;;;;;4956793;29;20035;-81
2021/01/11 10:50:09;;;;;;;22.73;13.20;;;3.10;99.90;;;;;;4956874;29;20395;-81
2021/01/11 10:52:35;;;;;;;20.38;12.38;;;3.20;99.90;;;;;;4956814;29;20024;-81
2021/01/11 10:55:00;;;;;;;17.77;11.55;;;3.40;99.90;;;;;;4956749;29;20542;-82
2021/01/11 10:57:26;;;;;;;16.67;11.18;;;3.30;99.90;;;;;;4956687;29;20126;-81
2021/01/11 10:59:52;;;;;;;18.92;11.75;;;3.40;99.90;;;;;;4956592;29;20034;-81
2021/01/11 11:02:18;;;;;;;91.40;36.25;;;3.80;99.90;;;;;;4956623;29;20027;-81
2021/01/11 11:04:45;;;;;;;20.92;12.20;;;4.20;99.90;;;;;;4958103;29;20024;-81
2021/01/11 11:07:12;;;;;;;18.05;11.60;;;4.40;99.90;;;;;;4956544;29;20063;-83
2021/01/11 11:09:38;;;;;;;18.75;11.20;;;4.90;99.90;;;;;;4956462;29;20031;-83
2021/01/11 11:12:04;;;;;;;18.08;11.32;;;5.20;99.90;;;;;;4957682;28;20027;-83
2021/01/11 11:14:30;;;;;;;19.50;12.32;;;4.80;99.90;;;;;;4956386;29;20039;-83
2021/01/11 11:16:56;;;;;;;17.85;11.63;;;4.20;99.90;;;;;;4957590;29;20104;-82
2021/01/11 11:19:21;;;;;;;18.08;11.90;;;4.30;99.90;;;;;;4956287;29;20023;-82
2021/01/11 11:21:47;;;;;;;21.92;12.15;;;3.60;99.90;;;;;;4956200;29;20027;-82
2021/01/11 11:24:13;;;;;;;20.85;11.60;;;4.10;99.90;;;;;;4956186;29;20114;-83
2021/01/11 11:26:39;;;;;;;20.67;12.50;;;4.50;99.90;;;;;;4957426;28;20075;-81
2021/01/11 11:29:05;;;;;;;19.95;11.90;;;4.80;99.90;;;;;;4956150;29;20027;-82
2021/01/11 11:31:33;;;;;;;15.27;10.25;;;5.00;99.90;;;;;;4957350;28;20035;-83
2021/01/11 11:33:59;;;;;;;19.63;11.32;;;5.30;99.90;;;;;;4957534;28;20050;-82
2021/01/11 11:36:26;;;;;;;17.13;11.40;;;5.50;99.90;;;;;;4957151;28;20066;-82
2021/01/11 11:38:51;;;;;;;20.13;11.70;;;5.50;99.90;;;;;;4957078;29;20050;-83
2021/01/11 11:41:19;;;;;;;17.90;11.52;;;5.80;99.90;;;;;;4955087;28;20066;-83
2021/01/11 11:43:44;;;;;;;19.13;11.45;;;5.70;99.90;;;;;;4955899;29;20035;-83
2021/01/11 11:46:10;;;;;;;18.48;12.32;;;5.30;99.90;;;;;;4956038;29;20031;-82
2021/01/11 11:48:36;;;;;;;19.08;12.98;;;5.10;99.90;;;;;;4955804;29;20020;-83
2021/01/11 11:51:02;;;;;;;20.65;11.88;;;5.20;99.90;;;;;;4955755;28;20019;-82
2021/01/11 11:53:27;;;;;;;18.13;12.82;;;5.80;99.90;;;;;;4955706;29;20031;-82
2021/01/11 11:55:53;;;;;;;20.27;12.10;;;6.00;99.90;;;;;;4956933;29;20106;-82
2021/01/11 11:58:19;;;;;;;21.13;12.98;;;6.70;99.90;;;;;;4955636;29;20393;-83
2021/01/11 12:00:46;;;;;;;20.80;12.05;;;6.70;98.80;;;;;;4955657;29;20042;-82
2021/01/11 12:03:11;;;;;;;19.38;12.68;;;6.60;98.50;;;;;;4956864;28;20391;-83
2021/01/11 12:05:37;;;;;;;16.92;11.50;;;6.90;97.30;;;;;;4955957;29;20031;-82
2021/01/11 12:08:03;;;;;;;15.93;10.57;;;7.00;96.30;;;;;;4955294;29;20051;-82
2021/01/11 12:10:29;;;;;;;16.50;10.90;;;6.50;96.80;;;;;;4955336;29;20047;-82
2021/01/11 12:12:55;;;;;;;17.20;10.93;;;7.20;95.60;;;;;;4956711;28;20056;-82
2021/01/11 12:15:21;;;;;;;16.40;10.70;;;7.40;94.90;;;;;;4955401;29;20058;-82
2021/01/11 12:17:47;;;;;;;18.60;10.57;;;8.20;94.30;;;;;;4956841;28;20098;-83
2021/01/11 12:20:14;;;;;;;21.30;11.93;;;8.50;92.60;;;;;;4955244;29;20050;-83
2021/01/11 12:22:41;;;;;;;15.85;10.50;;;8.70;89.60;;;;;;4956489;28;20475;-83
2021/01/11 12:25:11;;;;;;;16.38;11.15;;;8.90;90.90;;;;;;4955177;29;20483;-83
2021/01/11 12:27:38;;;;;;;16.27;10.95;;;8.60;89.20;;;;;;4955065;29;20039;-82
2021/01/11 12:30:05;;;;;;;15.25;10.20;;;9.20;87.80;;;;;;4956613;28;20415;-82
2021/01/11 12:32:31;;;;;;;17.60;10.77;;;9.40;85.70;;;;;;4956530;28;20019;-82
2021/01/11 12:34:57;;;;;;;19.08;11.60;;;8.90;85.00;;;;;;4956497;28;20375;-82
2021/01/11 12:37:23;;;;;;;14.93;10.45;;;9.30;82.80;;;;;;4955829;28;20035;-83
2021/01/11 12:39:49;;;;;;;15.13;10.63;;;9.00;82.20;;;;;;4956227;28;20471;-82